Terminal Aerodrome Forecast
Issued by NWS Cleveland, OH

Home | Current Version | Previous Version | Graphics & Text | Print | Product List | Glossary On
Versions: 1 2 3 4 5 6 7 8 9 10 11 12 13 14 15 16 17 18
000
FTUS41 KCLE 021454 AAB
TAFERI
TAF AMD
KERI 021454Z 0215/0312 24010G15KT 5SM -SHRA OVC015
      TEMPO 0215/0218 P6SM OVC050
     FM022000 27015G25KT P6SM VCSH OVC025
     FM030300 30012G20KT P6SM OVC012=

USA.gov is the U.S. government's official web portal to all federal, state and local government web resources and services.